新潟空港の過去48時間の天気

新潟空港 (Niigata)

現在時刻: 1/22 03:12 JST (1/21 18:12 UTC) 以下の時間は現地時間です。

過去48時間のMETAR気象情報
時間 風向 風速(m/s) 視程 気温(℃) 湿度(%) 気圧(hPa) 天気現象
21 21:00 北西 3 10km以上 2 51 1024 弱いしゅう雪
21 20:00 北北西 8 10km以上 2 55 1024
21 19:00 9 10km以上 2 69 1022
21 18:00 11 6,000m 2 81 1021 弱いしゅう雪
21 17:21 10 5,000m 3 81 1021 弱いしゅう雪
21 17:13 北北西 10 5,000m 2 87 1021 弱いしゅう雪
21 17:10 北北西 11 3,500m 2 87 1021 弱いしゅう雪
21 17:00 北北西 11 1,500m 2 87 1021 弱いしゅう雪
21 16:45 北北西 11 3,000m 2 87 1020 弱いしゅう雪
21 16:12 11 4,000m 2 93 1020 弱いしゅう雪
21 16:00 12 6,000m 3 87 1019 弱いしゅう雪
21 15:34 北北西 13 6,000m 3 87 1019 弱いしゅう雪
21 15:26 北北西 12 4,000m 3 87 1018 弱いしゅう雪
21 15:00 北北西 12 8,000m 3 93 1018 弱いしゅう雨
21 14:00 14 6,000m 4 93 1016 弱いしゅう雨
21 13:21 北北西 9 10km以上 5 93 1014
21 13:11 北北西 6 10km以上 6 87 1015
21 13:00 西南西 6 10km以上 5 93 1014 弱いしゅう雨
21 12:42 南西 6 6,000m 4 93 1015 弱いしゅう雨
21 12:36 南西 6 4,000m 4 93 1015 弱いしゅう雨 弱いしゅうあられ もや
21 12:18 7 10km以上 5 87 1014
21 12:00 4 10km以上 7 81 1015
21 11:00 5 10km以上 5 93 1016
21 10:44 南南東 5 10km以上 4 100 1016 弱いしゅう雨
21 10:15 南西 4 6,000m 3 93 1017 弱いしゅう雨
21 10:09 南西 5 3,500m 3 93 1017 しゅう雨 しゅう雪 もや
21 10:00 西南西 5 3,000m 3 93 1017 しゅう雨 もや
21 09:49 西南西 4 4,000m 4 87 1018 弱いしゅう雨 もや
21 09:00 3 10km以上 3 87 1017 周辺でしゅう雨
21 08:00 4 10km以上 2 100 1017
21 07:00 2 10km以上 2 100 1017
21 06:10 4 10km以上 2 100 1017
20 21:00 北北西 5 8,000m 5 81 1018 弱いしゅう雨
20 20:00 北西 4 10km以上 6 81 1018 弱いしゅう雨
20 19:00 北北西 6 10km以上 6 87 1017
20 18:18 北西 5 10km以上 6 87 1017 弱いしゅう雨
20 18:00 南西 4 10km以上 6 87 1017 弱いしゅう雨
20 17:00 東南東 2 10km以上 7 81 1016 周辺でしゅう雨
20 16:00 北西 3 10km以上 7 87 1016
20 15:00 西北西 8 10km以上 8 76 1015
20 14:14 西 11 10km以上 9 76 1015
20 14:00 4 10km以上 7 81 1015
20 13:34 南南西 4 8,000m 5 87 1015 弱いしゅう雨
20 13:28 南南西 4 6,000m 5 81 1015 しゅう雨
20 13:00 5 10km以上 7 53 1014 弱いしゅう雨
20 12:00 6 10km以上 7 53 1015
20 11:00 5 10km以上 5 56 1015 弱い雨
20 10:00 5 10km以上 5 56 1016
20 09:00 南南東 3 10km以上 3 65 1016
20 08:00 南南東 4 10km以上 2 69 1016
20 07:00 3 10km以上 0 74 1017
20 06:10 南南東 2 10km以上 -1 86 1017
RJSN 211200Z 32006KT 9999 -SHSN FEW015 SCT025 BKN040 02/M07 Q1024
RJSN 211100Z 33015KT 9999 FEW015 SCT025 BKN040 02/M06 Q1024
RJSN 211000Z 36017KT 9999 FEW015 SCT020 BKN030 02/M03 Q1022
RJSN 210900Z 35021KT 6000 -SHSN FEW010 SCT020 BKN030 02/M01 Q1021
RJSN 210821Z 35020G33KT 5000 -SHSN FEW008 SCT015 BKN020 03/00 Q1021 RMK 1CU008 4CU015 6CU020 A3016
RJSN 210813Z 34020KT 5000 -SHSN FEW008 SCT015 BKN020 02/00 Q1021 RMK 1CU008 4CU015 6CU020 A3016
RJSN 210810Z 34021KT 3500 -SHSN FEW008 BKN015 BKN020 02/00 Q1021 RMK 2CU008 5CU015 7CU020 A3016
RJSN 210800Z 34022KT 1500 R28/P2000N -SHSN FEW008 BKN015 BKN020 02/00 Q1021
RJSN 210745Z 34022KT 3000 -SHSN FEW010 BKN015 BKN020 02/00 Q1020 RMK 1CU010 5CU015 7CU020 A3014
RJSN 210712Z 35022KT 4000 -SHSN FEW010 BKN015 BKN020 02/01 Q1020 RMK 1CU010 5CU015 7CU020 A3012
RJSN 210700Z 35023KT 6000 -SHSN FEW010 BKN015 BKN020 03/01 Q1019
RJSN 210634Z 34025KT 6000 -SHSN FEW010 BKN015 BKN020 03/01 Q1019 RMK 1CU010 5CU015 6CU020 A3009
RJSN 210626Z 34023KT 4000 -SHSN FEW010 BKN015 BKN020 03/01 Q1018 RMK 1CU010 5CU015 6CU020 A3008
RJSN 210600Z 34024KT 8000 -SHRA FEW010 SCT015 BKN020 03/02 Q1018
RJSN 210500Z 35027KT 6000 -SHRA FEW010 BKN015 BKN020 04/03 Q1016
RJSN 210421Z 33018G28KT 9999 FEW010 BKN015 BKN020 05/04 Q1014 RMK 2CU010 5CU015 7CU020 A2996
RJSN 210411Z 33012KT 9999 FEW010 SCT020 BKN030 06/04 Q1015 RMK 1CU010 4CU020 7CU030 A2997
RJSN 210400Z 25012KT 9999 -SHRA FEW010 SCT020 BKN030 05/04 Q1014
RJSN 210342Z 23012KT 6000 -SHRA FEW010 BKN020 BKN030 04/03 Q1015 RMK 2CU010 5CU020 7CU030 A2998
RJSN 210336Z 23012KT 4000 -SHRAGS BR FEW010 FEW020CB BKN030 04/03 Q1015 RMK 2CU010 2CB020 7CU030 A2998 CB 10KM SW MOV E SMALL HAIL
RJSN 210318Z 17013KT 9999 TS FEW015 FEW020CB BKN030 BKN040 05/03 Q1014 RMK 2CU015 1CB020 5CU030 6CU040 A2997 FBL TS 15KM W MOV E
RJSN 210300Z 19008KT 9999 FEW020 SCT030 BKN040 07/04 Q1015
RJSN 210200Z 18009KT 9999 FEW020 SCT030 BKN040 05/04 Q1016
RJSN 210144Z 16010KT 9999 -SHRA FEW020 SCT030 BKN040 04/04 Q1016 RMK 1CU020 4CU030 6CU040 A3001 P/FR
RJSN 210115Z 22008KT 6000 -SHRA FEW015 SCT020 BKN030 03/02 Q1017 RMK 1CU015 4CU020 7CU030 A3005
RJSN 210109Z 23010KT 3500 R28/2000N SHRASN BR FEW015 BKN020 BKN030 03/02 Q1017 RMK 2CU015 5CU020 7CU030 A3005
RJSN 210100Z 25010KT 3000 R28/2000N SHRA BR FEW015 BKN020 BKN030 03/02 Q1017
RJSN 210049Z 24007KT 210V280 4000 -SHRA BR FEW015 SCT020 BKN030 04/02 Q1018 RMK 2CU015 4CU020 7CU030 A3006
RJSN 210000Z 18006KT 9999 VCSH FEW030 BKN040 03/01 Q1017
RJSN 202300Z 19008KT 9999 FEW030 SCT040 BKN070 02/02 Q1017
RJSN 202200Z 17004KT 9999 FEW015 SCT070 02/02 Q1017
RJSN 202110Z 17007KT 9999 FEW040 BKN070 02/02 Q1017 RMK 2SC040 5AC070 A3004
RJSN 201200Z 34010KT 8000 -SHRA FEW015 BKN020 BKN040 05/02 Q1018
RJSN 201100Z 32007KT 290V350 9999 -SHRA FEW015 SCT020 BKN040 06/03 Q1018
RJSN 201000Z 33012KT 9999 FEW015 SCT040 BKN070 06/04 Q1017
RJSN 200918Z 31010KT 9999 -SHRA FEW015 BKN020 BKN040 06/04 Q1017 RMK 1CU015 5CU020 6CU040 A3005
RJSN 200900Z 23007KT 190V260 9999 -SHRA FEW015 BKN020 BKN040 06/04 Q1017
RJSN 200800Z 12004KT 350V150 9999 VCSH FEW015 BKN020 BKN040 07/04 Q1016
RJSN 200700Z 32005KT 9999 FEW020 SCT070 BKN/// 07/05 Q1016
RJSN 200600Z 30015KT 9999 FEW020 SCT060 08/04 Q1015
RJSN 200514Z 26022KT 9999 FEW020 SCT030 09/05 Q1015 RMK 1CU020 4CU030 A2997
RJSN 200500Z 19008KT 150V220 9999 FEW020 SCT030 BKN040 07/04 Q1015
RJSN 200434Z 21008KT 170V250 8000 -SHRA FEW020 SCT025 BKN030 05/03 Q1015 RMK 2CU020 4CU025 6CU030 A2997
RJSN 200428Z 21007KT 160V250 6000 SHRA FEW020 BKN025 BKN030 05/02 Q1015 RMK 2CU020 5CU025 7CU030 A2998
RJSN 200400Z 17010KT 9999 -SHRA FEW020 SCT030 BKN070 07/M02 Q1014
RJSN 200300Z 19011KT 9999 FEW040 SCT070 BKN100 07/M02 Q1015
RJSN 200200Z 17010KT 9999 -RA FEW040 BKN080 05/M03 Q1015
RJSN 200100Z 19010KT 9999 FEW040 SCT070 BKN090 05/M03 Q1016
RJSN 200000Z 16006KT 9999 FEW050 BKN070 03/M03 Q1016
RJSN 192300Z 16007KT 9999 FEW070 SCT100 02/M03 Q1016
RJSN 192200Z 18006KT 9999 FEW080 BKN/// 00/M04 Q1017
RJSN 192110Z 15003KT 9999 FEW070 SCT/// M01/M03 Q1017 RMK 1AC070 A3005